sensor_id;sensor_type;location;lat;lon;timestamp;P1;P2;P0
72031;PMS5003;49185;42.320;23.198;2023-12-29T00:01:35;2582.67;2582.67;2582.67
72031;PMS5003;49185;42.320;23.198;2023-12-29T00:04:00;2585.33;2585.33;2585.33
72031;PMS5003;49185;42.320;23.198;2023-12-29T00:06:26;2575.33;2575.33;2575.33
72031;PMS5003;49185;42.320;23.198;2023-12-29T00:08:51;2585.33;2585.33;2585.33
72031;PMS5003;49185;42.320;23.198;2023-12-29T00:11:17;2575.33;2575.33;2575.33
72031;PMS5003;49185;42.320;23.198;2023-12-29T00:13:43;2589.00;2589.00;2589.00
72031;PMS5003;49185;42.320;23.198;2023-12-29T00:16:09;2577.33;2577.33;2577.33
72031;PMS5003;49185;42.320;23.198;2023-12-29T00:18:36;2574.33;2574.33;2574.33
72031;PMS5003;49185;42.320;23.198;2023-12-29T00:21:02;2584.00;2584.00;2584.00
72031;PMS5003;49185;42.320;23.198;2023-12-29T00:23:28;2586.33;2586.33;2586.33
72031;PMS5003;49185;42.320;23.198;2023-12-29T00:25:53;2591.67;2591.67;2591.67
72031;PMS5003;49185;42.320;23.198;2023-12-29T00:28:19;2591.67;2591.67;2591.67
72031;PMS5003;49185;42.320;23.198;2023-12-29T00:30:44;2585.50;2585.50;2585.50
72031;PMS5003;49185;42.320;23.198;2023-12-29T00:33:10;2581.67;2581.67;2581.67
72031;PMS5003;49185;42.320;23.198;2023-12-29T00:35:36;2591.67;2591.67;2591.67
72031;PMS5003;49185;42.320;23.198;2023-12-29T00:38:02;2597.00;2597.00;2597.00
72031;PMS5003;49185;42.320;23.198;2023-12-29T00:40:28;2593.67;2593.67;2593.67
72031;PMS5003;49185;42.320;23.198;2023-12-29T00:42:53;2582.67;2582.67;2582.67
72031;PMS5003;49185;42.320;23.198;2023-12-29T00:45:18;2593.67;2593.67;2593.67
72031;PMS5003;49185;42.320;23.198;2023-12-29T00:47:44;2581.67;2581.67;2581.67
72031;PMS5003;49185;42.320;23.198;2023-12-29T00:50:09;2593.67;2593.67;2593.67
72031;PMS5003;49185;42.320;23.198;2023-12-29T00:52:34;2580.67;2580.67;2580.67
72031;PMS5003;49185;42.320;23.198;2023-12-29T00:55:00;2580.67;2580.67;2580.67
72031;PMS5003;49185;42.320;23.198;2023-12-29T00:57:25;2594.67;2594.67;2594.67
72031;PMS5003;49185;42.320;23.198;2023-12-29T00:59:50;2581.67;2581.67;2581.67
72031;PMS5003;49185;42.320;23.198;2023-12-29T01:02:16;2594.67;2594.67;2594.67
72031;PMS5003;49185;42.320;23.198;2023-12-29T01:04:41;2594.67;2594.67;2594.67
72031;PMS5003;49185;42.320;23.198;2023-12-29T01:07:07;2594.67;2594.67;2594.67
72031;PMS5003;49185;42.320;23.198;2023-12-29T01:09:36;2582.67;2582.67;2582.67
72031;PMS5003;49185;42.320;23.198;2023-12-29T01:12:02;2595.50;2595.50;2595.50
72031;PMS5003;49185;42.320;23.198;2023-12-29T01:14:28;2584.00;2584.00;2584.00
72031;PMS5003;49185;42.320;23.198;2023-12-29T01:16:53;2594.67;2594.67;2594.67
72031;PMS5003;49185;42.320;23.198;2023-12-29T01:19:18;2577.33;2577.33;2577.33
72031;PMS5003;49185;42.320;23.198;2023-12-29T01:21:44;2577.33;2577.33;2577.33
72031;PMS5003;49185;42.320;23.198;2023-12-29T01:24:09;2585.33;2585.33;2585.33
72031;PMS5003;49185;42.320;23.198;2023-12-29T01:26:38;2585.33;2585.33;2585.33
72031;PMS5003;49185;42.320;23.198;2023-12-29T01:29:06;2590.50;2590.50;2590.50
72031;PMS5003;49185;42.320;23.198;2023-12-29T01:31:32;2584.00;2584.00;2584.00
72031;PMS5003;49185;42.320;23.198;2023-12-29T01:33:57;2585.33;2585.33;2585.33
72031;PMS5003;49185;42.320;23.198;2023-12-29T01:36:23;2585.50;2585.50;2585.50
72031;PMS5003;49185;42.320;23.198;2023-12-29T01:38:49;2594.67;2594.67;2594.67
72031;PMS5003;49185;42.320;23.198;2023-12-29T01:41:14;2581.67;2581.67;2581.67
72031;PMS5003;49185;42.320;23.198;2023-12-29T01:46:31;2592.00;2592.00;2592.00
72031;PMS5003;49185;42.320;23.198;2023-12-29T01:48:59;2594.00;2594.00;2594.00
72031;PMS5003;49185;42.320;23.198;2023-12-29T01:51:26;2585.50;2585.50;2585.50
72031;PMS5003;49185;42.320;23.198;2023-12-29T01:53:55;2589.00;2589.00;2589.00
72031;PMS5003;49185;42.320;23.198;2023-12-29T01:56:23;2595.50;2595.50;2595.50
72031;PMS5003;49185;42.320;23.198;2023-12-29T01:58:49;2593.50;2593.50;2593.50
72031;PMS5003;49185;42.320;23.198;2023-12-29T02:01:15;2589.00;2589.00;2589.00
72031;PMS5003;49185;42.320;23.198;2023-12-29T02:03:43;2574.50;2574.50;2574.50
72031;PMS5003;49185;42.320;23.198;2023-12-29T02:06:09;2580.50;2580.50;2580.50
72031;PMS5003;49185;42.320;23.198;2023-12-29T02:08:36;2571.50;2571.50;2571.50
72031;PMS5003;49185;42.320;23.198;2023-12-29T02:11:02;2579.00;2579.00;2579.00
72031;PMS5003;49185;42.320;23.198;2023-12-29T02:13:28;2571.50;2571.50;2571.50
72031;PMS5003;49185;42.320;23.198;2023-12-29T02:15:54;2568.33;2568.33;2568.33
72031;PMS5003;49185;42.320;23.198;2023-12-29T02:18:28;2582.50;2582.50;2582.50
72031;PMS5003;49185;42.320;23.198;2023-12-29T02:20:57;2571.50;2571.50;2571.50
72031;PMS5003;49185;42.320;23.198;2023-12-29T02:23:23;2574.33;2574.33;2574.33
72031;PMS5003;49185;42.320;23.198;2023-12-29T02:25:48;2585.33;2585.33;2585.33
72031;PMS5003;49185;42.320;23.198;2023-12-29T02:28:19;2589.00;2589.00;2589.00
72031;PMS5003;49185;42.320;23.198;2023-12-29T02:30:53;2577.50;2577.50;2577.50
72031;PMS5003;49185;42.320;23.198;2023-12-29T02:33:25;2579.00;2579.00;2579.00
72031;PMS5003;49185;42.320;23.198;2023-12-29T02:35:55;2582.50;2582.50;2582.50
72031;PMS5003;49185;42.320;23.198;2023-12-29T02:38:24;2577.50;2577.50;2577.50
72031;PMS5003;49185;42.320;23.198;2023-12-29T02:40:50;2590.50;2590.50;2590.50
72031;PMS5003;49185;42.320;23.198;2023-12-29T02:43:15;2577.33;2577.33;2577.33
72031;PMS5003;49185;42.320;23.198;2023-12-29T02:45:41;2585.33;2585.33;2585.33
72031;PMS5003;49185;42.320;23.198;2023-12-29T02:48:06;2574.33;2574.33;2574.33
72031;PMS5003;49185;42.320;23.198;2023-12-29T02:50:32;2585.33;2585.33;2585.33
72031;PMS5003;49185;42.320;23.198;2023-12-29T02:52:57;2573.33;2573.33;2573.33
72031;PMS5003;49185;42.320;23.198;2023-12-29T02:55:22;2581.67;2581.67;2581.67
72031;PMS5003;49185;42.320;23.198;2023-12-29T02:57:48;2585.33;2585.33;2585.33
72031;PMS5003;49185;42.320;23.198;2023-12-29T03:00:13;2573.33;2573.33;2573.33
72031;PMS5003;49185;42.320;23.198;2023-12-29T03:02:39;2575.33;2575.33;2575.33
72031;PMS5003;49185;42.320;23.198;2023-12-29T03:05:04;2565.33;2565.33;2565.33
72031;PMS5003;49185;42.320;23.198;2023-12-29T03:07:30;2568.50;2568.50;2568.50
72031;PMS5003;49185;42.320;23.198;2023-12-29T03:09:55;2569.33;2569.33;2569.33
72031;PMS5003;49185;42.320;23.198;2023-12-29T03:12:21;2569.33;2569.33;2569.33
72031;PMS5003;49185;42.320;23.198;2023-12-29T03:14:46;2569.33;2569.33;2569.33
72031;PMS5003;49185;42.320;23.198;2023-12-29T03:17:12;2565.33;2565.33;2565.33
72031;PMS5003;49185;42.320;23.198;2023-12-29T03:19:37;2555.33;2555.33;2555.33
72031;PMS5003;49185;42.320;23.198;2023-12-29T03:22:03;2561.33;2561.33;2561.33
72031;PMS5003;49185;42.320;23.198;2023-12-29T03:24:28;2550.33;2550.33;2550.33
72031;PMS5003;49185;42.320;23.198;2023-12-29T03:26:54;2561.50;2561.50;2561.50
72031;PMS5003;49185;42.320;23.198;2023-12-29T03:29:20;2558.33;2558.33;2558.33
72031;PMS5003;49185;42.320;23.198;2023-12-29T03:31:46;2549.50;2549.50;2549.50
72031;PMS5003;49185;42.320;23.198;2023-12-29T03:34:11;2547.33;2547.33;2547.33
72031;PMS5003;49185;42.320;23.198;2023-12-29T03:36:36;2555.33;2555.33;2555.33
72031;PMS5003;49185;42.320;23.198;2023-12-29T03:39:02;2544.33;2544.33;2544.33
72031;PMS5003;49185;42.320;23.198;2023-12-29T03:41:27;2556.33;2556.33;2556.33
72031;PMS5003;49185;42.320;23.198;2023-12-29T03:43:53;2555.33;2555.33;2555.33
72031;PMS5003;49185;42.320;23.198;2023-12-29T03:46:19;2543.00;2543.00;2543.00
72031;PMS5003;49185;42.320;23.198;2023-12-29T03:48:45;2548.00;2548.00;2548.00
72031;PMS5003;49185;42.320;23.198;2023-12-29T03:51:12;2558.50;2558.50;2558.50
72031;PMS5003;49185;42.320;23.198;2023-12-29T03:53:38;2548.00;2548.00;2548.00
72031;PMS5003;49185;42.320;23.198;2023-12-29T03:56:13;2553.33;2553.33;2553.33
72031;PMS5003;49185;42.320;23.198;2023-12-29T03:58:40;2552.50;2552.50;2552.50
72031;PMS5003;49185;42.320;23.198;2023-12-29T04:01:14;2549.33;2549.33;2549.33
72031;PMS5003;49185;42.320;23.198;2023-12-29T04:03:41;2537.00;2537.00;2537.00
72031;PMS5003;49185;42.320;23.198;2023-12-29T04:06:07;2540.00;2540.00;2540.00
72031;PMS5003;49185;42.320;23.198;2023-12-29T04:08:36;2546.00;2546.00;2546.00
72031;PMS5003;49185;42.320;23.198;2023-12-29T04:11:03;2538.50;2538.50;2538.50
72031;PMS5003;49185;42.320;23.198;2023-12-29T04:13:29;2548.00;2548.00;2548.00
72031;PMS5003;49185;42.320;23.198;2023-12-29T04:15:55;2537.00;2537.00;2537.00
72031;PMS5003;49185;42.320;23.198;2023-12-29T04:18:21;2548.00;2548.00;2548.00
72031;PMS5003;49185;42.320;23.198;2023-12-29T04:20:47;2548.00;2548.00;2548.00
72031;PMS5003;49185;42.320;23.198;2023-12-29T04:23:13;2535.00;2535.00;2535.00
72031;PMS5003;49185;42.320;23.198;2023-12-29T04:25:39;2535.00;2535.00;2535.00
72031;PMS5003;49185;42.320;23.198;2023-12-29T04:28:05;2546.00;2546.00;2546.00
72031;PMS5003;49185;42.320;23.198;2023-12-29T04:30:31;2548.00;2548.00;2548.00
72031;PMS5003;49185;42.320;23.198;2023-12-29T04:32:57;2534.00;2534.00;2534.00
72031;PMS5003;49185;42.320;23.198;2023-12-29T04:35:22;2534.00;2534.00;2534.00
72031;PMS5003;49185;42.320;23.198;2023-12-29T04:37:47;2531.00;2531.00;2531.00
72031;PMS5003;49185;42.320;23.198;2023-12-29T04:40:13;2540.00;2540.00;2540.00
72031;PMS5003;49185;42.320;23.198;2023-12-29T04:42:38;2540.00;2540.00;2540.00
72031;PMS5003;49185;42.320;23.198;2023-12-29T04:45:04;2535.00;2535.00;2535.00
72031;PMS5003;49185;42.320;23.198;2023-12-29T04:47:30;2541.50;2541.50;2541.50
72031;PMS5003;49185;42.320;23.198;2023-12-29T04:49:56;2541.50;2541.50;2541.50
72031;PMS5003;49185;42.320;23.198;2023-12-29T04:52:21;2528.33;2528.33;2528.33
72031;PMS5003;49185;42.320;23.198;2023-12-29T04:54:47;2528.33;2528.33;2528.33
72031;PMS5003;49185;42.320;23.198;2023-12-29T04:57:12;2528.33;2528.33;2528.33
72031;PMS5003;49185;42.320;23.198;2023-12-29T04:59:38;2541.00;2541.00;2541.00
72031;PMS5003;49185;42.320;23.198;2023-12-29T05:02:03;2541.00;2541.00;2541.00
72031;PMS5003;49185;42.320;23.198;2023-12-29T05:04:28;2541.00;2541.00;2541.00
72031;PMS5003;49185;42.320;23.198;2023-12-29T05:06:54;2541.00;2541.00;2541.00
72031;PMS5003;49185;42.320;23.198;2023-12-29T05:09:19;2532.00;2532.00;2532.00
72031;PMS5003;49185;42.320;23.198;2023-12-29T05:11:45;2544.33;2544.33;2544.33
72031;PMS5003;49185;42.320;23.198;2023-12-29T05:14:11;2548.00;2548.00;2548.00
72031;PMS5003;49185;42.320;23.198;2023-12-29T05:16:36;2546.33;2546.33;2546.33
72031;PMS5003;49185;42.320;23.198;2023-12-29T05:19:02;2534.00;2534.00;2534.00
72031;PMS5003;49185;42.320;23.198;2023-12-29T05:21:27;2531.00;2531.00;2531.00
72031;PMS5003;49185;42.320;23.198;2023-12-29T05:23:52;2534.00;2534.00;2534.00
72031;PMS5003;49185;42.320;23.198;2023-12-29T05:26:18;2531.00;2531.00;2531.00
72031;PMS5003;49185;42.320;23.198;2023-12-29T05:28:43;2532.00;2532.00;2532.00
72031;PMS5003;49185;42.320;23.198;2023-12-29T05:31:09;2541.00;2541.00;2541.00
72031;PMS5003;49185;42.320;23.198;2023-12-29T05:33:34;2534.00;2534.00;2534.00
72031;PMS5003;49185;42.320;23.198;2023-12-29T05:36:07;2544.50;2544.50;2544.50
72031;PMS5003;49185;42.320;23.198;2023-12-29T05:38:33;2546.00;2546.00;2546.00
72031;PMS5003;49185;42.320;23.198;2023-12-29T05:40:59;2544.33;2544.33;2544.33
72031;PMS5003;49185;42.320;23.198;2023-12-29T05:43:24;2535.00;2535.00;2535.00
72031;PMS5003;49185;42.320;23.198;2023-12-29T05:45:50;2544.33;2544.33;2544.33
72031;PMS5003;49185;42.320;23.198;2023-12-29T05:48:15;2547.33;2547.33;2547.33
72031;PMS5003;49185;42.320;23.198;2023-12-29T05:50:40;2535.00;2535.00;2535.00
72031;PMS5003;49185;42.320;23.198;2023-12-29T05:53:06;2537.00;2537.00;2537.00
72031;PMS5003;49185;42.320;23.198;2023-12-29T05:55:31;2547.33;2547.33;2547.33
72031;PMS5003;49185;42.320;23.198;2023-12-29T05:57:57;2546.33;2546.33;2546.33
72031;PMS5003;49185;42.320;23.198;2023-12-29T06:00:22;2538.00;2538.00;2538.00
72031;PMS5003;49185;42.320;23.198;2023-12-29T06:02:47;2547.33;2547.33;2547.33
72031;PMS5003;49185;42.320;23.198;2023-12-29T06:05:13;2546.33;2546.33;2546.33
72031;PMS5003;49185;42.320;23.198;2023-12-29T06:07:39;2544.33;2544.33;2544.33
72031;PMS5003;49185;42.320;23.198;2023-12-29T06:10:04;2548.00;2548.00;2548.00
72031;PMS5003;49185;42.320;23.198;2023-12-29T06:12:30;2544.50;2544.50;2544.50
72031;PMS5003;49185;42.320;23.198;2023-12-29T06:14:56;2525.33;2525.33;2525.33
72031;PMS5003;49185;42.320;23.198;2023-12-29T06:17:24;2532.00;2532.00;2532.00
72031;PMS5003;49185;42.320;23.198;2023-12-29T06:19:49;2516.33;2516.33;2516.33
72031;PMS5003;49185;42.320;23.198;2023-12-29T06:22:15;2512.33;2512.33;2512.33
72031;PMS5003;49185;42.320;23.198;2023-12-29T06:24:40;2512.33;2512.33;2512.33
72031;PMS5003;49185;42.320;23.198;2023-12-29T06:27:09;2526.00;2526.00;2526.00
72031;PMS5003;49185;42.320;23.198;2023-12-29T06:29:36;2526.00;2526.00;2526.00
72031;PMS5003;49185;42.320;23.198;2023-12-29T06:32:02;2527.50;2527.50;2527.50
72031;PMS5003;49185;42.320;23.198;2023-12-29T06:34:28;2521.50;2521.50;2521.50
72031;PMS5003;49185;42.320;23.198;2023-12-29T06:36:53;2537.00;2537.00;2537.00
72031;PMS5003;49185;42.320;23.198;2023-12-29T06:39:19;2541.00;2541.00;2541.00
72031;PMS5003;49185;42.320;23.198;2023-12-29T06:41:44;2541.00;2541.00;2541.00
72031;PMS5003;49185;42.320;23.198;2023-12-29T06:44:09;2549.33;2549.33;2549.33
72031;PMS5003;49185;42.320;23.198;2023-12-29T06:46:36;2549.33;2549.33;2549.33
72031;PMS5003;49185;42.320;23.198;2023-12-29T06:49:02;2576.00;2576.00;2576.00
72031;PMS5003;49185;42.320;23.198;2023-12-29T06:51:27;2591.67;2591.67;2591.67
72031;PMS5003;49185;42.320;23.198;2023-12-29T06:53:54;2604.67;2604.67;2604.67
72031;PMS5003;49185;42.320;23.198;2023-12-29T06:56:19;2610.00;2610.00;2610.00
72031;PMS5003;49185;42.320;23.198;2023-12-29T06:58:45;2610.67;2610.67;2610.67
72031;PMS5003;49185;42.320;23.198;2023-12-29T07:01:10;2620.00;2620.00;2620.00
72031;PMS5003;49185;42.320;23.198;2023-12-29T07:03:36;2637.67;2637.67;2637.67
72031;PMS5003;49185;42.320;23.198;2023-12-29T07:06:01;2647.67;2647.67;2647.67
72031;PMS5003;49185;42.320;23.198;2023-12-29T07:08:27;2675.00;2675.00;2675.00
72031;PMS5003;49185;42.320;23.198;2023-12-29T07:10:53;2706.50;2706.50;2706.50
72031;PMS5003;49185;42.320;23.198;2023-12-29T07:13:18;2734.33;2734.33;2734.33
72031;PMS5003;49185;42.320;23.198;2023-12-29T07:15:44;2774.67;2774.67;2774.67
72031;PMS5003;49185;42.320;23.198;2023-12-29T07:18:09;2791.67;2791.67;2791.67
72031;PMS5003;49185;42.320;23.198;2023-12-29T07:20:34;2800.67;2800.67;2800.67
72031;PMS5003;49185;42.320;23.198;2023-12-29T07:23:00;2794.33;2794.33;2794.33
72031;PMS5003;49185;42.320;23.198;2023-12-29T07:25:25;2800.67;2800.67;2800.67
72031;PMS5003;49185;42.320;23.198;2023-12-29T07:27:50;2767.33;2767.33;2767.33
72031;PMS5003;49185;42.320;23.198;2023-12-29T07:30:16;2758.33;2758.33;2758.33
72031;PMS5003;49185;42.320;23.198;2023-12-29T07:32:42;2753.67;2753.67;2753.67
72031;PMS5003;49185;42.320;23.198;2023-12-29T07:35:07;2751.33;2751.33;2751.33
72031;PMS5003;49185;42.320;23.198;2023-12-29T07:37:33;2753.67;2753.67;2753.67
72031;PMS5003;49185;42.320;23.198;2023-12-29T07:39:58;2736.00;2736.00;2736.00
72031;PMS5003;49185;42.320;23.198;2023-12-29T07:42:23;2727.33;2727.33;2727.33
72031;PMS5003;49185;42.320;23.198;2023-12-29T07:44:49;2734.33;2734.33;2734.33
72031;PMS5003;49185;42.320;23.198;2023-12-29T07:47:14;2733.33;2733.33;2733.33
72031;PMS5003;49185;42.320;23.198;2023-12-29T07:49:41;2711.00;2711.00;2711.00
72031;PMS5003;49185;42.320;23.198;2023-12-29T07:52:07;2715.50;2715.50;2715.50
72031;PMS5003;49185;42.320;23.198;2023-12-29T07:54:32;2722.33;2722.33;2722.33
72031;PMS5003;49185;42.320;23.198;2023-12-29T07:56:57;2713.33;2713.33;2713.33
72031;PMS5003;49185;42.320;23.198;2023-12-29T07:59:23;2685.00;2685.00;2685.00
72031;PMS5003;49185;42.320;23.198;2023-12-29T08:01:51;2684.00;2684.00;2684.00
72031;PMS5003;49185;42.320;23.198;2023-12-29T08:04:16;2695.33;2695.33;2695.33
72031;PMS5003;49185;42.320;23.198;2023-12-29T08:06:42;2695.33;2695.33;2695.33
72031;PMS5003;49185;42.320;23.198;2023-12-29T08:09:07;2678.00;2678.00;2678.00
72031;PMS5003;49185;42.320;23.198;2023-12-29T08:11:33;2695.33;2695.33;2695.33
72031;PMS5003;49185;42.320;23.198;2023-12-29T08:13:58;2701.50;2701.50;2701.50
72031;PMS5003;49185;42.320;23.198;2023-12-29T08:16:23;2709.33;2709.33;2709.33
72031;PMS5003;49185;42.320;23.198;2023-12-29T08:18:49;2713.33;2713.33;2713.33
72031;PMS5003;49185;42.320;23.198;2023-12-29T08:21:18;2727.33;2727.33;2727.33
72031;PMS5003;49185;42.320;23.198;2023-12-29T08:23:45;2751.00;2751.00;2751.00
72031;PMS5003;49185;42.320;23.198;2023-12-29T08:26:11;2749.50;2749.50;2749.50
72031;PMS5003;49185;42.320;23.198;2023-12-29T08:28:36;2752.67;2752.67;2752.67
72031;PMS5003;49185;42.320;23.198;2023-12-29T08:31:02;2767.33;2767.33;2767.33
72031;PMS5003;49185;42.320;23.198;2023-12-29T08:33:27;2787.00;2787.00;2787.00
72031;PMS5003;49185;42.320;23.198;2023-12-29T08:35:53;2802.00;2802.00;2802.00
72031;PMS5003;49185;42.320;23.198;2023-12-29T08:38:18;2800.67;2800.67;2800.67
72031;PMS5003;49185;42.320;23.198;2023-12-29T08:40:43;2831.00;2831.00;2831.00
72031;PMS5003;49185;42.320;23.198;2023-12-29T08:43:09;2843.00;2843.00;2843.00
72031;PMS5003;49185;42.320;23.198;2023-12-29T08:45:34;2857.00;2857.00;2857.00
72031;PMS5003;49185;42.320;23.198;2023-12-29T08:48:00;2870.33;2870.33;2870.33
72031;PMS5003;49185;42.320;23.198;2023-12-29T08:50:25;2890.33;2890.33;2890.33
72031;PMS5003;49185;42.320;23.198;2023-12-29T08:52:51;2866.33;2866.33;2866.33
72031;PMS5003;49185;42.320;23.198;2023-12-29T08:55:16;2885.00;2885.00;2885.00
72031;PMS5003;49185;42.320;23.198;2023-12-29T08:57:42;2891.67;2891.67;2891.67
72031;PMS5003;49185;42.320;23.198;2023-12-29T09:00:07;2901.00;2901.00;2901.00
72031;PMS5003;49185;42.320;23.198;2023-12-29T09:02:33;2927.50;2927.50;2927.50
72031;PMS5003;49185;42.320;23.198;2023-12-29T09:04:58;2943.00;2943.00;2943.00
72031;PMS5003;49185;42.320;23.198;2023-12-29T09:07:24;2922.67;2922.67;2922.67
72031;PMS5003;49185;42.320;23.198;2023-12-29T09:09:49;2921.33;2921.33;2921.33
72031;PMS5003;49185;42.320;23.198;2023-12-29T09:12:14;2917.00;2917.00;2917.00
72031;PMS5003;49185;42.320;23.198;2023-12-29T09:14:40;2966.67;2966.67;2966.67
72031;PMS5003;49185;42.320;23.198;2023-12-29T09:17:05;2968.00;2968.00;2968.00
72031;PMS5003;49185;42.320;23.198;2023-12-29T09:19:30;2958.33;2958.33;2958.33
72031;PMS5003;49185;42.320;23.198;2023-12-29T09:21:56;2950.33;2950.33;2950.33
72031;PMS5003;49185;42.320;23.198;2023-12-29T09:24:21;2966.67;2966.67;2966.67
72031;PMS5003;49185;42.320;23.198;2023-12-29T09:26:47;2965.33;2965.33;2965.33
72031;PMS5003;49185;42.320;23.198;2023-12-29T09:29:12;3002.33;3002.33;3002.33
72031;PMS5003;49185;42.320;23.198;2023-12-29T09:31:40;3009.67;3009.67;3009.67
72031;PMS5003;49185;42.320;23.198;2023-12-29T09:34:05;3001.00;3001.00;3001.00
72031;PMS5003;49185;42.320;23.198;2023-12-29T09:36:30;3002.33;3002.33;3002.33
72031;PMS5003;49185;42.320;23.198;2023-12-29T09:38:56;3020.33;3020.33;3020.33
72031;PMS5003;49185;42.320;23.198;2023-12-29T09:41:23;3024.33;3024.33;3024.33
72031;PMS5003;49185;42.320;23.198;2023-12-29T09:43:49;3020.50;3020.50;3020.50
72031;PMS5003;49185;42.320;23.198;2023-12-29T09:46:18;3038.50;3038.50;3038.50
72031;PMS5003;49185;42.320;23.198;2023-12-29T09:48:46;3034.00;3034.00;3034.00
72031;PMS5003;49185;42.320;23.198;2023-12-29T09:51:12;3038.50;3038.50;3038.50
72031;PMS5003;49185;42.320;23.198;2023-12-29T09:53:40;3029.50;3029.50;3029.50
72031;PMS5003;49185;42.320;23.198;2023-12-29T09:56:07;3065.00;3065.00;3065.00
72031;PMS5003;49185;42.320;23.198;2023-12-29T09:58:33;3032.00;3032.00;3032.00
72031;PMS5003;49185;42.320;23.198;2023-12-29T10:00:59;3030.00;3030.00;3030.00
72031;PMS5003;49185;42.320;23.198;2023-12-29T10:03:28;3030.00;3030.00;3030.00
72031;PMS5003;49185;42.320;23.198;2023-12-29T10:05:54;3058.00;3058.00;3058.00
72031;PMS5003;49185;42.320;23.198;2023-12-29T10:08:21;3070.00;3070.00;3070.00
72031;PMS5003;49185;42.320;23.198;2023-12-29T10:10:48;3067.50;3067.50;3067.50
72031;PMS5003;49185;42.320;23.198;2023-12-29T10:13:15;3062.50;3062.50;3062.50
72031;PMS5003;49185;42.320;23.198;2023-12-29T10:15:45;3023.00;3023.00;3023.00
72031;PMS5003;49185;42.320;23.198;2023-12-29T10:18:28;3023.00;3023.00;3023.00
72031;PMS5003;49185;42.320;23.198;2023-12-29T10:23:35;3049.50;3049.50;3049.50
72031;PMS5003;49185;42.320;23.198;2023-12-29T10:26:05;3025.00;3025.00;3025.00
72031;PMS5003;49185;42.320;23.198;2023-12-29T10:28:35;3025.50;3025.50;3025.50
72031;PMS5003;49185;42.320;23.198;2023-12-29T10:31:00;3067.33;3067.33;3067.33
72031;PMS5003;49185;42.320;23.198;2023-12-29T10:33:26;3054.00;3054.00;3054.00
72031;PMS5003;49185;42.320;23.198;2023-12-29T10:35:58;3072.00;3072.00;3072.00
72031;PMS5003;49185;42.320;23.198;2023-12-29T10:38:24;3045.00;3045.00;3045.00
72031;PMS5003;49185;42.320;23.198;2023-12-29T10:40:50;3051.33;3051.33;3051.33
72031;PMS5003;49185;42.320;23.198;2023-12-29T10:43:21;3081.00;3081.00;3081.00
72031;PMS5003;49185;42.320;23.198;2023-12-29T10:45:47;3095.00;3095.00;3095.00
72031;PMS5003;49185;42.320;23.198;2023-12-29T10:48:12;3063.00;3063.00;3063.00
72031;PMS5003;49185;42.320;23.198;2023-12-29T10:50:46;3085.50;3085.50;3085.50
72031;PMS5003;49185;42.320;23.198;2023-12-29T10:53:13;3085.33;3085.33;3085.33
72031;PMS5003;49185;42.320;23.198;2023-12-29T10:55:39;3104.00;3104.00;3104.00
72031;PMS5003;49185;42.320;23.198;2023-12-29T10:58:05;3141.67;3141.67;3141.67
72031;PMS5003;49185;42.320;23.198;2023-12-29T11:00:31;3134.50;3134.50;3134.50
72031;PMS5003;49185;42.320;23.198;2023-12-29T11:02:56;3155.50;3155.50;3155.50
72031;PMS5003;49185;42.320;23.198;2023-12-29T11:05:24;3170.67;3170.67;3170.67
72031;PMS5003;49185;42.320;23.198;2023-12-29T11:07:51;3163.00;3163.00;3163.00
72031;PMS5003;49185;42.320;23.198;2023-12-29T11:10:16;3077.00;3077.00;3077.00
72031;PMS5003;49185;42.320;23.198;2023-12-29T11:12:42;3118.33;3118.33;3118.33
72031;PMS5003;49185;42.320;23.198;2023-12-29T11:15:08;3160.50;3160.50;3160.50
72031;PMS5003;49185;42.320;23.198;2023-12-29T11:17:34;3121.33;3121.33;3121.33
72031;PMS5003;49185;42.320;23.198;2023-12-29T11:20:00;3179.50;3179.50;3179.50
72031;PMS5003;49185;42.320;23.198;2023-12-29T11:22:31;3179.50;3179.50;3179.50
72031;PMS5003;49185;42.320;23.198;2023-12-29T11:24:57;3257.00;3257.00;3257.00
72031;PMS5003;49185;42.320;23.198;2023-12-29T11:27:23;3212.00;3212.00;3212.00
72031;PMS5003;49185;42.320;23.198;2023-12-29T11:29:57;3231.50;3231.50;3231.50
72031;PMS5003;49185;42.320;23.198;2023-12-29T11:35:40;3234.00;3234.00;3234.00
72031;PMS5003;49185;42.320;23.198;2023-12-29T11:41:02;3314.00;3314.00;3314.00
72031;PMS5003;49185;42.320;23.198;2023-12-29T11:43:34;3231.50;3231.50;3231.50
72031;PMS5003;49185;42.320;23.198;2023-12-29T11:45:59;3320.67;3320.67;3320.67
72031;PMS5003;49185;42.320;23.198;2023-12-29T11:48:52;3072.00;3072.00;3072.00
72031;PMS5003;49185;42.320;23.198;2023-12-29T11:51:35;3054.00;3054.00;3054.00
72031;PMS5003;49185;42.320;23.198;2023-12-29T11:54:06;3047.00;3047.00;3047.00
72031;PMS5003;49185;42.320;23.198;2023-12-29T11:56:39;3063.00;3063.00;3063.00
72031;PMS5003;49185;42.320;23.198;2023-12-29T12:01:43;3029.50;3029.50;3029.50
72031;PMS5003;49185;42.320;23.198;2023-12-29T12:04:33;3031.67;3031.67;3031.67
72031;PMS5003;49185;42.320;23.198;2023-12-29T12:07:00;3001.00;3001.00;3001.00
72031;PMS5003;49185;42.320;23.198;2023-12-29T12:09:25;3261.00;3261.00;3261.00
72031;PMS5003;49185;42.320;23.198;2023-12-29T12:11:51;3225.67;3225.67;3225.67
72031;PMS5003;49185;42.320;23.198;2023-12-29T12:17:10;3021.00;3021.00;3021.00
72031;PMS5003;49185;42.320;23.198;2023-12-29T12:19:36;3303.50;3303.50;3303.50
72031;PMS5003;49185;42.320;23.198;2023-12-29T12:22:02;3314.67;3314.67;3314.67
72031;PMS5003;49185;42.320;23.198;2023-12-29T12:24:28;3302.33;3302.33;3302.33
72031;PMS5003;49185;42.320;23.198;2023-12-29T12:26:56;3316.50;3316.50;3316.50
72031;PMS5003;49185;42.320;23.198;2023-12-29T12:29:22;3319.50;3319.50;3319.50
72031;PMS5003;49185;42.320;23.198;2023-12-29T12:31:57;3285.33;3285.33;3285.33
72031;PMS5003;49185;42.320;23.198;2023-12-29T12:34:22;3277.50;3277.50;3277.50
72031;PMS5003;49185;42.320;23.198;2023-12-29T12:36:48;3051.00;3051.00;3051.00
72031;PMS5003;49185;42.320;23.198;2023-12-29T12:39:15;3076.50;3076.50;3076.50
72031;PMS5003;49185;42.320;23.198;2023-12-29T12:41:41;3320.00;3320.00;3320.00
72031;PMS5003;49185;42.320;23.198;2023-12-29T12:44:13;3300.67;3300.67;3300.67